Sc Draco — VRQF3 — position and weather

sailwx.info

Track history (hours):
 
Tides and Currents Weather Stations Pressure Air Temp Water Temp Dewpoint Dewpoint Depression Visibility Wind Speed Wind Dir Waves Ship Positions

Sc Draco

Last reported at 2017-Dec-02 03:13 UTC. Time now 2018-Jan-19 23:44 UTC.
Position N 01°19' E 103°20'.
Warning: this ship's position is 48 days out of date.

Length 182 m; draft 11 m.

Type: Ship (hazmat cat B). MMSI: 477439800.

Date/timePositionNaut miles runAvg speedWind from/ knotsBaromVisibWave heightAir tempDewpointWater temp
2017-Dec-02 03:13N 01°19' E 103°20'3 8.2
2017-Dec-02 02:53N 01°17' E 103°22'4 7.9
2017-Dec-02 02:24N 01°14' E 103°25'3 8.0
2017-Dec-02 02:00N 01°13' E 103°28'4 8.5
2017-Dec-02 01:30N 01°12' E 103°32'510.8
2017-Dec-02 01:00N 01°12' E 103°37'4 8.9
2017-Dec-02 00:30N 01°13' E 103°41'2 4.6
2017-Dec-02 00:00N 01°15' E 103°43'0 0.1
2017-Dec-01 23:26N 01°15' E 103°43'0 0.0
2017-Dec-01 22:59N 01°15' E 103°43'0 0.0
2017-Dec-01 22:29N 01°15' E 103°43'0 0.0
2017-Dec-01 21:59N 01°15' E 103°43'0 0.0
2017-Dec-01 21:23N 01°15' E 103°43'0 0.0
2017-Dec-01 20:56N 01°15' E 103°43'0 0.0
2017-Dec-01 19:35N 01°15' E 103°43'0 0.0
2017-Dec-01 19:17N 01°15' E 103°43'0 0.0
2017-Dec-01 18:53N 01°15' E 103°43'0 0.0
2017-Dec-01 18:29N 01°15' E 103°43'0 0.0
2017-Dec-01 17:20N 01°15' E 103°43'0 0.0
2017-Dec-01 16:50N 01°15' E 103°43'0 0.0
2017-Dec-01 16:29N 01°15' E 103°43'0 0.0
2017-Dec-01 14:44N 01°15' E 103°43'0 0.0
2017-Dec-01 14:29N 01°15' E 103°43'0 0.0
2017-Dec-01 13:35N 01°15' E 103°43'0 0.0
2017-Dec-01 13:23N 01°15' E 103°43'0 0.0
2017-Dec-01 12:44N 01°15' E 103°43'0 0.0
2017-Dec-01 12:23N 01°15' E 103°43'0 0.0
2017-Dec-01 11:17N 01°15' E 103°43'0 0.0
2017-Dec-01 10:41N 01°15' E 103°43'0 0.0
2017-Dec-01 10:26N 01°15' E 103°43'0 0.0
2017-Dec-01 09:56N 01°15' E 103°43'0 0.0
2017-Dec-01 09:26N 01°15' E 103°43'0 0.0
2017-Dec-01 08:47N 01°15' E 103°43'0 0.0
2017-Dec-01 08:29N 01°15' E 103°43'0 0.0
2017-Dec-01 07:55N 01°15' E 103°43'0 0.0
2017-Dec-01 07:28N 01°15' E 103°43'0 0.0
2017-Dec-01 06:58N 01°15' E 103°43'0 0.0
2017-Dec-01 06:25N 01°15' E 103°43'0 0.0
2017-Dec-01 05:58N 01°15' E 103°43'0 0.0
2017-Dec-01 05:28N 01°15' E 103°43'0 0.0
2017-Dec-01 04:58N 01°15' E 103°43'0 0.0
2017-Dec-01 04:28N 01°15' E 103°43'0 0.0
2017-Dec-01 03:58N 01°15' E 103°43'0 0.0
2017-Dec-01 03:28N 01°15' E 103°43'0 0.0
2017-Dec-01 02:52N 01°15' E 103°43'0 0.0
2017-Dec-01 02:22N 01°15' E 103°43'0 0.0
2017-Dec-01 01:58N 01°15' E 103°43'0 0.0
2017-Dec-01 01:28N 01°15' E 103°43'0 0.0
2017-Dec-01 00:58N 01°15' E 103°43'0 0.0
2017-Dec-01 00:28N 01°15' E 103°43'0 0.0
2017-Nov-30 23:58N 01°15' E 103°43'0 0.0
2017-Nov-30 23:28N 01°15' E 103°43'0 0.0
2017-Nov-30 22:58N 01°15' E 103°43'0 0.0
2017-Nov-30 22:25N 01°15' E 103°43'0 0.0
2017-Nov-30 21:58N 01°15' E 103°43'0 0.0
2017-Nov-30 21:28N 01°15' E 103°43'0 0.0
2017-Nov-30 20:52N 01°15' E 103°43'0 0.0
2017-Nov-30 20:19N 01°15' E 103°43'0 0.0
2017-Nov-30 19:49N 01°15' E 103°43'0 0.0
2017-Nov-30 19:28N 01°15' E 103°43'0 0.0
2017-Nov-30 18:58N 01°15' E 103°43'0 0.0
2017-Nov-30 18:28N 01°15' E 103°43'0 0.0
2017-Nov-30 17:58N 01°15' E 103°43'0 0.0
2017-Nov-30 16:49N 01°15' E 103°43'0 0.0
2017-Nov-30 16:28N 01°15' E 103°43'0 0.0
2017-Nov-30 15:56N 01°15' E 103°43'0 0.0
2017-Nov-30 15:29N 01°15' E 103°43'0 0.0
2017-Nov-30 14:53N 01°15' E 103°43'0 0.0
2017-Nov-30 14:23N 01°15' E 103°43'0 0.0
2017-Nov-30 13:53N 01°15' E 103°43'0 0.0
2017-Nov-30 13:29N 01°15' E 103°43'0 0.0
2017-Nov-30 12:56N 01°15' E 103°43'0 0.0
2017-Nov-30 12:26N 01°15' E 103°43'0 0.0
2017-Nov-30 11:59N 01°15' E 103°43'0 0.0
2017-Nov-30 11:29N 01°15' E 103°43'0 0.0
2017-Nov-30 10:59N 01°15' E 103°43'0 0.0
2017-Nov-30 10:29N 01°15' E 103°43'0 0.0
2017-Nov-30 09:59N 01°15' E 103°43'0 0.0
2017-Nov-30 09:29N 01°15' E 103°43'0 0.0
2017-Nov-30 08:59N 01°15' E 103°43'0 0.0
2017-Nov-30 08:29N 01°15' E 103°43'0 0.0
2017-Nov-30 07:59N 01°15' E 103°43'0 0.0
2017-Nov-30 07:26N 01°15' E 103°43'0 0.0
2017-Nov-30 06:59N 01°15' E 103°43'0 0.0
2017-Nov-30 06:29N 01°15' E 103°43'0 0.0
2017-Nov-30 05:59N 01°15' E 103°43'0 0.0
2017-Nov-30 05:29N 01°15' E 103°43'0 0.0
2017-Nov-30 04:59N 01°15' E 103°43'0 0.0
2017-Nov-30 04:29N 01°15' E 103°43'0 0.0
2017-Nov-30 03:59N 01°15' E 103°43'0 0.0
2017-Nov-30 03:29N 01°15' E 103°43'0 0.0
2017-Nov-30 02:59N 01°15' E 103°43'0 0.0
2017-Nov-30 02:29N 01°15' E 103°43'0 0.0
2017-Nov-30 01:59N 01°15' E 103°43'0 0.0
2017-Nov-30 01:26N 01°15' E 103°43'0 0.0
2017-Nov-30 00:59N 01°15' E 103°43'0 0.0
2017-Nov-30 00:29N 01°15' E 103°43'0 0.0
2017-Nov-29 23:59N 01°15' E 103°43'0 0.0
2017-Nov-29 23:26N 01°15' E 103°43'0 0.2
2017-Nov-29 23:00N 01°15' E 103°43'2 3.1
2017-Nov-29 22:30N 01°14' E 103°42'3 5.3
2017-Nov-29 22:00N 01°12' E 103°40'0 0.8
2017-Nov-29 21:26N 01°12' E 103°41'0 0.0
2017-Nov-29 20:59N 01°12' E 103°41'0 0.0
2017-Nov-29 20:26N 01°12' E 103°41'0 0.0
2017-Nov-29 19:51N 01°12' E 103°41'0 0.0
2017-Nov-29 19:21N 01°12' E 103°41'0 0.0
2017-Nov-29 18:57N 01°12' E 103°41'0 0.0
2017-Nov-29 18:30N 01°12' E 103°41'0 0.0
2017-Nov-29 17:57N 01°12' E 103°41'0 0.0
2017-Nov-29 17:27N 01°12' E 103°41'0 0.0
2017-Nov-29 16:57N 01°12' E 103°41'0 0.0
2017-Nov-29 16:27N 01°12' E 103°41'0 0.0
2017-Nov-29 15:51N 01°12' E 103°41'0 0.0
2017-Nov-29 15:30N 01°12' E 103°41'0 0.0
2017-Nov-29 14:54N 01°12' E 103°41'0 0.0
2017-Nov-29 14:30N 01°12' E 103°41'0 0.0
2017-Nov-29 13:57N 01°12' E 103°41'0 0.0
2017-Nov-29 13:27N 01°12' E 103°41'0 0.0
2017-Nov-29 12:57N 01°12' E 103°41'0 0.0
2017-Nov-29 12:21N 01°12' E 103°41'0 0.0
2017-Nov-29 11:54N 01°12' E 103°41'0 0.0
2017-Nov-29 11:30N 01°12' E 103°41'0 0.0
2017-Nov-29 10:57N 01°12' E 103°41'0 0.0
2017-Nov-29 10:27N 01°12' E 103°41'0 0.0
2017-Nov-29 10:00N 01°12' E 103°41'0 0.0
2017-Nov-29 09:30N 01°12' E 103°41'0 0.0
2017-Nov-29 08:57N 01°12' E 103°41'0 0.0
2017-Nov-29 08:27N 01°12' E 103°41'0 0.0
2017-Nov-29 07:51N 01°12' E 103°41'0 0.0
2017-Nov-29 07:30N 01°12' E 103°41'0 0.0
2017-Nov-29 06:57N 01°12' E 103°41'0 0.0
2017-Nov-29 06:27N 01°12' E 103°41'0 0.0
2017-Nov-29 05:48N 01°12' E 103°41'0 0.0
2017-Nov-29 05:30N 01°12' E 103°41'0 0.1
2017-Nov-29 04:51N 01°12' E 103°41'0 0.3
2017-Nov-29 04:30N 01°12' E 103°41'0 0.1
2017-Nov-29 03:57N 01°12' E 103°40'0 0.0
2017-Nov-29 03:30N 01°12' E 103°40'0 0.0
2017-Nov-29 02:57N 01°12' E 103°40'0 0.1
2017-Nov-29 02:30N 01°12' E 103°41'0 0.0
2017-Nov-29 01:57N 01°12' E 103°41'0 0.0
2017-Nov-29 01:21N 01°12' E 103°41'0 0.0
2017-Nov-29 00:54N 01°12' E 103°41'0 0.2
2017-Nov-29 00:30N 01°12' E 103°40'0 0.1
2017-Nov-28 23:57N 01°12' E 103°41'0 0.1
2017-Nov-28 23:21N 01°12' E 103°40'0 0.2
2017-Nov-28 22:57N 01°12' E 103°41'0 0.0
2017-Nov-28 22:30N 01°12' E 103°41'0 0.0
2017-Nov-28 21:57N 01°12' E 103°41'0 0.0
2017-Nov-28 21:30N 01°12' E 103°41'0 0.0
2017-Nov-28 20:57N 01°12' E 103°41'0 0.1
2017-Nov-28 20:21N 01°12' E 103°41'0 0.0
2017-Nov-28 19:57N 01°12' E 103°41'0 0.0
2017-Nov-28 19:30N 01°12' E 103°41'0 0.0
2017-Nov-28 18:57N 01°12' E 103°41'0 0.1
2017-Nov-28 18:30N 01°12' E 103°41'0 0.0
2017-Nov-28 17:57N 01°12' E 103°41'0 0.0
2017-Nov-28 17:27N 01°12' E 103°41'0 0.1
2017-Nov-28 16:57N 01°12' E 103°41'0 0.1
2017-Nov-28 16:24N 01°12' E 103°41'0 0.0
2017-Nov-28 15:48N 01°12' E 103°41'0 0.0
2017-Nov-28 14:57N 01°12' E 103°41'0 0.0
2017-Nov-28 14:30N 01°12' E 103°41'0 0.0
2017-Nov-28 13:57N 01°12' E 103°41'0 0.0
2017-Nov-28 13:30N 01°12' E 103°41'0 0.6
2017-Nov-28 13:00N 01°12' E 103°40'2 3.7
2017-Nov-28 12:30N 01°12' E 103°39'2 3.9
2017-Nov-28 12:00N 01°13' E 103°37'2 4.7
2017-Nov-28 11:30N 01°12' E 103°35'2 4.1
2017-Nov-28 10:59N 01°11' E 103°33'3 6.0
2017-Nov-28 10:30N 01°10' E 103°30'510.5
2017-Nov-28 09:59N 01°12' E 103°25'511.1
2017-Nov-28 09:30N 01°15' E 103°21'  
Track history (hours):
 
Tides and Currents Weather Stations Pressure Air Temp Water Temp Dewpoint Dewpoint Depression Visibility Wind Speed Wind Dir Waves Ship Positions

Sc Draco

Last reported at 2017-Dec-02 03:13 UTC. Time now 2018-Jan-19 23:44 UTC.
Position N 01°19' E 103°20'.
Warning: this ship's position is 48 days out of date.

Length 182 m; draft 11 m.

Type: Ship (hazmat cat B). MMSI: 477439800.

Date/timePositionNaut miles runAvg speedWind from/ knotsBaromVisibWave heightAir tempDewpointWater temp
2017-Dec-02 03:13N 01°19' E 103°20'3 8.2
2017-Dec-02 02:53N 01°17' E 103°22'4 7.9
2017-Dec-02 02:24N 01°14' E 103°25'3 8.0
2017-Dec-02 02:00N 01°13' E 103°28'4 8.5
2017-Dec-02 01:30N 01°12' E 103°32'510.8
2017-Dec-02 01:00N 01°12' E 103°37'4 8.9
2017-Dec-02 00:30N 01°13' E 103°41'2 4.6
2017-Dec-02 00:00N 01°15' E 103°43'0 0.1
2017-Dec-01 23:26N 01°15' E 103°43'0 0.0
2017-Dec-01 22:59N 01°15' E 103°43'0 0.0
2017-Dec-01 22:29N 01°15' E 103°43'0 0.0
2017-Dec-01 21:59N 01°15' E 103°43'0 0.0
2017-Dec-01 21:23N 01°15' E 103°43'0 0.0
2017-Dec-01 20:56N 01°15' E 103°43'0 0.0
2017-Dec-01 19:35N 01°15' E 103°43'0 0.0
2017-Dec-01 19:17N 01°15' E 103°43'0 0.0
2017-Dec-01 18:53N 01°15' E 103°43'0 0.0
2017-Dec-01 18:29N 01°15' E 103°43'0 0.0
2017-Dec-01 17:20N 01°15' E 103°43'0 0.0
2017-Dec-01 16:50N 01°15' E 103°43'0 0.0
2017-Dec-01 16:29N 01°15' E 103°43'0 0.0
2017-Dec-01 14:44N 01°15' E 103°43'0 0.0
2017-Dec-01 14:29N 01°15' E 103°43'0 0.0
2017-Dec-01 13:35N 01°15' E 103°43'0 0.0
2017-Dec-01 13:23N 01°15' E 103°43'0 0.0
2017-Dec-01 12:44N 01°15' E 103°43'0 0.0
2017-Dec-01 12:23N 01°15' E 103°43'0 0.0
2017-Dec-01 11:17N 01°15' E 103°43'0 0.0
2017-Dec-01 10:41N 01°15' E 103°43'0 0.0
2017-Dec-01 10:26N 01°15' E 103°43'0 0.0
2017-Dec-01 09:56N 01°15' E 103°43'0 0.0
2017-Dec-01 09:26N 01°15' E 103°43'0 0.0
2017-Dec-01 08:47N 01°15' E 103°43'0 0.0
2017-Dec-01 08:29N 01°15' E 103°43'0 0.0
2017-Dec-01 07:55N 01°15' E 103°43'0 0.0
2017-Dec-01 07:28N 01°15' E 103°43'0 0.0
2017-Dec-01 06:58N 01°15' E 103°43'0 0.0
2017-Dec-01 06:25N 01°15' E 103°43'0 0.0
2017-Dec-01 05:58N 01°15' E 103°43'0 0.0
2017-Dec-01 05:28N 01°15' E 103°43'0 0.0
2017-Dec-01 04:58N 01°15' E 103°43'0 0.0
2017-Dec-01 04:28N 01°15' E 103°43'0 0.0
2017-Dec-01 03:58N 01°15' E 103°43'0 0.0
2017-Dec-01 03:28N 01°15' E 103°43'0 0.0
2017-Dec-01 02:52N 01°15' E 103°43'0 0.0
2017-Dec-01 02:22N 01°15' E 103°43'0 0.0
2017-Dec-01 01:58N 01°15' E 103°43'0 0.0
2017-Dec-01 01:28N 01°15' E 103°43'0 0.0
2017-Dec-01 00:58N 01°15' E 103°43'0 0.0
2017-Dec-01 00:28N 01°15' E 103°43'0 0.0
2017-Nov-30 23:58N 01°15' E 103°43'0 0.0
2017-Nov-30 23:28N 01°15' E 103°43'0 0.0
2017-Nov-30 22:58N 01°15' E 103°43'0 0.0
2017-Nov-30 22:25N 01°15' E 103°43'0 0.0
2017-Nov-30 21:58N 01°15' E 103°43'0 0.0
2017-Nov-30 21:28N 01°15' E 103°43'0 0.0
2017-Nov-30 20:52N 01°15' E 103°43'0 0.0
2017-Nov-30 20:19N 01°15' E 103°43'0 0.0
2017-Nov-30 19:49N 01°15' E 103°43'0 0.0
2017-Nov-30 19:28N 01°15' E 103°43'0 0.0
2017-Nov-30 18:58N 01°15' E 103°43'0 0.0
2017-Nov-30 18:28N 01°15' E 103°43'0 0.0
2017-Nov-30 17:58N 01°15' E 103°43'0 0.0
2017-Nov-30 16:49N 01°15' E 103°43'0 0.0
2017-Nov-30 16:28N 01°15' E 103°43'0 0.0
2017-Nov-30 15:56N 01°15' E 103°43'0 0.0
2017-Nov-30 15:29N 01°15' E 103°43'0 0.0
2017-Nov-30 14:53N 01°15' E 103°43'0 0.0
2017-Nov-30 14:23N 01°15' E 103°43'0 0.0
2017-Nov-30 13:53N 01°15' E 103°43'0 0.0
2017-Nov-30 13:29N 01°15' E 103°43'0 0.0
2017-Nov-30 12:56N 01°15' E 103°43'0 0.0
2017-Nov-30 12:26N 01°15' E 103°43'0 0.0
2017-Nov-30 11:59N 01°15' E 103°43'0 0.0
2017-Nov-30 11:29N 01°15' E 103°43'0 0.0
2017-Nov-30 10:59N 01°15' E 103°43'0 0.0
2017-Nov-30 10:29N 01°15' E 103°43'0 0.0
2017-Nov-30 09:59N 01°15' E 103°43'0 0.0
2017-Nov-30 09:29N 01°15' E 103°43'0 0.0
2017-Nov-30 08:59N 01°15' E 103°43'0 0.0
2017-Nov-30 08:29N 01°15' E 103°43'0 0.0
2017-Nov-30 07:59N 01°15' E 103°43'0 0.0
2017-Nov-30 07:26N 01°15' E 103°43'0 0.0
2017-Nov-30 06:59N 01°15' E 103°43'0 0.0
2017-Nov-30 06:29N 01°15' E 103°43'0 0.0
2017-Nov-30 05:59N 01°15' E 103°43'0 0.0
2017-Nov-30 05:29N 01°15' E 103°43'0 0.0
2017-Nov-30 04:59N 01°15' E 103°43'0 0.0
2017-Nov-30 04:29N 01°15' E 103°43'0 0.0
2017-Nov-30 03:59N 01°15' E 103°43'0 0.0
2017-Nov-30 03:29N 01°15' E 103°43'0 0.0
2017-Nov-30 02:59N 01°15' E 103°43'0 0.0
2017-Nov-30 02:29N 01°15' E 103°43'0 0.0
2017-Nov-30 01:59N 01°15' E 103°43'0 0.0
2017-Nov-30 01:26N 01°15' E 103°43'0 0.0
2017-Nov-30 00:59N 01°15' E 103°43'0 0.0
2017-Nov-30 00:29N 01°15' E 103°43'0 0.0
2017-Nov-29 23:59N 01°15' E 103°43'0 0.0
2017-Nov-29 23:26N 01°15' E 103°43'0 0.2
2017-Nov-29 23:00N 01°15' E 103°43'2 3.1
2017-Nov-29 22:30N 01°14' E 103°42'3 5.3
2017-Nov-29 22:00N 01°12' E 103°40'0 0.8
2017-Nov-29 21:26N 01°12' E 103°41'0 0.0
2017-Nov-29 20:59N 01°12' E 103°41'0 0.0
2017-Nov-29 20:26N 01°12' E 103°41'0 0.0
2017-Nov-29 19:51N 01°12' E 103°41'0 0.0
2017-Nov-29 19:21N 01°12' E 103°41'0 0.0
2017-Nov-29 18:57N 01°12' E 103°41'0 0.0
2017-Nov-29 18:30N 01°12' E 103°41'0 0.0
2017-Nov-29 17:57N 01°12' E 103°41'0 0.0
2017-Nov-29 17:27N 01°12' E 103°41'0 0.0
2017-Nov-29 16:57N 01°12' E 103°41'0 0.0
2017-Nov-29 16:27N 01°12' E 103°41'0 0.0
2017-Nov-29 15:51N 01°12' E 103°41'0 0.0
2017-Nov-29 15:30N 01°12' E 103°41'0 0.0
2017-Nov-29 14:54N 01°12' E 103°41'0 0.0
2017-Nov-29 14:30N 01°12' E 103°41'0 0.0
2017-Nov-29 13:57N 01°12' E 103°41'0 0.0
2017-Nov-29 13:27N 01°12' E 103°41'0 0.0
2017-Nov-29 12:57N 01°12' E 103°41'0 0.0
2017-Nov-29 12:21N 01°12' E 103°41'0 0.0
2017-Nov-29 11:54N 01°12' E 103°41'0 0.0
2017-Nov-29 11:30N 01°12' E 103°41'0 0.0
2017-Nov-29 10:57N 01°12' E 103°41'0 0.0
2017-Nov-29 10:27N 01°12' E 103°41'0 0.0
2017-Nov-29 10:00N 01°12' E 103°41'0 0.0
2017-Nov-29 09:30N 01°12' E 103°41'0 0.0
2017-Nov-29 08:57N 01°12' E 103°41'0 0.0
2017-Nov-29 08:27N 01°12' E 103°41'0 0.0
2017-Nov-29 07:51N 01°12' E 103°41'0 0.0
2017-Nov-29 07:30N 01°12' E 103°41'0 0.0
2017-Nov-29 06:57N 01°12' E 103°41'0 0.0
2017-Nov-29 06:27N 01°12' E 103°41'0 0.0
2017-Nov-29 05:48N 01°12' E 103°41'0 0.0
2017-Nov-29 05:30N 01°12' E 103°41'0 0.1
2017-Nov-29 04:51N 01°12' E 103°41'0 0.3
2017-Nov-29 04:30N 01°12' E 103°41'0 0.1
2017-Nov-29 03:57N 01°12' E 103°40'0 0.0
2017-Nov-29 03:30N 01°12' E 103°40'0 0.0
2017-Nov-29 02:57N 01°12' E 103°40'0 0.1
2017-Nov-29 02:30N 01°12' E 103°41'0 0.0
2017-Nov-29 01:57N 01°12' E 103°41'0 0.0
2017-Nov-29 01:21N 01°12' E 103°41'0 0.0
2017-Nov-29 00:54N 01°12' E 103°41'0 0.2
2017-Nov-29 00:30N 01°12' E 103°40'0 0.1
2017-Nov-28 23:57N 01°12' E 103°41'0 0.1
2017-Nov-28 23:21N 01°12' E 103°40'0 0.2
2017-Nov-28 22:57N 01°12' E 103°41'0 0.0
2017-Nov-28 22:30N 01°12' E 103°41'0 0.0
2017-Nov-28 21:57N 01°12' E 103°41'0 0.0
2017-Nov-28 21:30N 01°12' E 103°41'0 0.0
2017-Nov-28 20:57N 01°12' E 103°41'0 0.1
2017-Nov-28 20:21N 01°12' E 103°41'0 0.0
2017-Nov-28 19:57N 01°12' E 103°41'0 0.0
2017-Nov-28 19:30N 01°12' E 103°41'0 0.0
2017-Nov-28 18:57N 01°12' E 103°41'0 0.1
2017-Nov-28 18:30N 01°12' E 103°41'0 0.0
2017-Nov-28 17:57N 01°12' E 103°41'0 0.0
2017-Nov-28 17:27N 01°12' E 103°41'0 0.1
2017-Nov-28 16:57N 01°12' E 103°41'0 0.1
2017-Nov-28 16:24N 01°12' E 103°41'0 0.0
2017-Nov-28 15:48N 01°12' E 103°41'0 0.0
2017-Nov-28 14:57N 01°12' E 103°41'0 0.0
2017-Nov-28 14:30N 01°12' E 103°41'0 0.0
2017-Nov-28 13:57N 01°12' E 103°41'0 0.0
2017-Nov-28 13:30N 01°12' E 103°41'0 0.6
2017-Nov-28 13:00N 01°12' E 103°40'2 3.7
2017-Nov-28 12:30N 01°12' E 103°39'2 3.9
2017-Nov-28 12:00N 01°13' E 103°37'2 4.7
2017-Nov-28 11:30N 01°12' E 103°35'2 4.1
2017-Nov-28 10:59N 01°11' E 103°33'3 6.0
2017-Nov-28 10:30N 01°10' E 103°30'510.5
2017-Nov-28 09:59N 01°12' E 103°25'511.1
2017-Nov-28 09:30N 01°15' E 103°21'  

Dump ship's entire track history